Thor Heyerdahl — DKQH — position and weather

sailwx.info

Track history (hours):
 
Tides and Currents Weather Stations Pressure Air Temp Water Temp Dewpoint Dewpoint Depression Visibility Wind Speed Wind Dir Waves Ship Positions

Thor Heyerdahl

Last reported at 2017-Mar-25 03:31 UTC. Time now 2017-Mar-25 03:46 UTC.
Position N 38°32' W 028°38'.

beam 6.5 m; draft 2.2 m.

Type: Sailing vessel. MMSI: 211232340.

Date/timePositionNaut miles runAvg speedWind from/ knotsBaromVisibWave heightAir tempDewpointWater temp
2017-Mar-25 03:31N 38°32' W 028°38'0 0.0
2017-Mar-25 02:32N 38°32' W 028°38'0 0.0
2017-Mar-25 01:32N 38°32' W 028°38'0 0.0
2017-Mar-25 00:32N 38°32' W 028°38'0 0.0
2017-Mar-24 23:32N 38°32' W 028°38'0 0.0
2017-Mar-24 22:32N 38°32' W 028°38'0 0.0
2017-Mar-24 21:32N 38°32' W 028°38'0 0.0
2017-Mar-24 20:32N 38°32' W 028°38'0 0.0
2017-Mar-24 19:32N 38°32' W 028°38'0 0.0
2017-Mar-24 18:32N 38°32' W 028°38'0 0.0
2017-Mar-24 17:31N 38°32' W 028°38'0 0.0
2017-Mar-24 16:32N 38°32' W 028°38'0 0.0
2017-Mar-24 15:32N 38°32' W 028°38'0 0.0
2017-Mar-24 14:32N 38°32' W 028°38'0 0.0
2017-Mar-24 13:29N 38°32' W 028°38'0 0.0
2017-Mar-24 12:32N 38°32' W 028°38'0 0.0
2017-Mar-24 11:29N 38°32' W 028°38'0 0.0
2017-Mar-24 10:32N 38°32' W 028°38'0 0.0
2017-Mar-24 09:32N 38°32' W 028°38'0 0.0
2017-Mar-24 08:32N 38°32' W 028°38'0 0.0
2017-Mar-24 07:28N 38°32' W 028°38'0 0.0
2017-Mar-24 06:29N 38°32' W 028°38'0 0.0
2017-Mar-24 05:32N 38°32' W 028°38'0 0.0
2017-Mar-24 04:29N 38°32' W 028°38'0 0.0
2017-Mar-24 03:32N 38°32' W 028°38'0 0.0
2017-Mar-24 02:32N 38°32' W 028°38'0 0.0
2017-Mar-24 01:32N 38°32' W 028°38'0 0.0
2017-Mar-24 00:32N 38°32' W 028°38'0 0.0
2017-Mar-23 23:32N 38°32' W 028°38'0 0.0
2017-Mar-23 22:32N 38°32' W 028°38'0 0.0
2017-Mar-23 21:32N 38°32' W 028°38'0 0.0
2017-Mar-23 18:29N 38°32' W 028°38'0 0.0
2017-Mar-23 17:32N 38°32' W 028°38'0 0.0
2017-Mar-23 16:31N 38°32' W 028°38'0 0.0
2017-Mar-23 15:32N 38°32' W 028°38'0 0.0
2017-Mar-23 14:32N 38°32' W 028°38'0 0.0
2017-Mar-23 13:32N 38°32' W 028°38'0 0.0
2017-Mar-23 12:32N 38°32' W 028°38'0 0.0
2017-Mar-23 11:29N 38°32' W 028°38'1 1.3
2017-Mar-23 10:33N 38°31' W 028°38'6 6.4
2017-Mar-23 09:33N 38°30' W 028°46'6 6.2
2017-Mar-23 08:33N 38°32' W 028°54'6 6.3
2017-Mar-23 07:34N 38°34' W 029°01'6 6.1
2017-Mar-23 06:33N 38°36' W 029°08'6 6.3
2017-Mar-23 05:33N 38°39' W 029°15'6 6.1
2017-Mar-23 04:34N 38°42' W 029°22'6 6.1
2017-Mar-23 03:33N 38°45' W 029°29'6 6.2
2017-Mar-23 02:33N 38°48' W 029°36'7 6.6
2017-Mar-23 01:33N 38°51' W 029°44'6 6.4
2017-Mar-23 00:33N 38°53' W 029°51'6 6.1
2017-Mar-22 23:33N 38°56' W 029°58'6 6.2
2017-Mar-22 22:34N 38°59' W 030°05'7 6.4
2017-Mar-22 21:29N 39°02' W 030°13'14 6.3
2017-Mar-22 19:15N 39°08' W 030°30'22 5.9
2017-Mar-22 15:27N 39°18' W 030°56'5 3.8
2017-Mar-22 14:04N 39°20' W 031°02'12 0.2
2017-Mar-20 14:10N 39°18' W 031°17'16 7.4
2017-Mar-20 12:00N 39°12' W 031°36'114 6.4 020 / 141030.010.8 16.3 8.815.5
2017-Mar-19 18:00N 38°48' W 034°00'29 4.8 320 / 41023.0 5.4 16.513.217.0
2017-Mar-19 12:00N 38°42' W 034°36'167 7.0 310 / 141023.9 2.2 15.515.517.0
2017-Mar-18 12:00N 37°54' W 038°00'120 6.6 240 / 191026.310.8 17.912.217.5
2017-Mar-17 18:00N 37°18' W 040°24'47 7.8 220 / 151029.810.8 18.812.518.5
2017-Mar-17 12:00N 37°00' W 041°18'134 7.5 200 / 211031.910.8 18.011.618.5
2017-Mar-16 18:00N 36°12' W 043°54'43 7.1 140 / 141032.010.8 18.015.619.0
2017-Mar-16 12:00N 35°54' W 044°42'145 6.1 160 / 121033.210.8 18.315.317.5
2017-Mar-15 12:00N 34°36' W 047°12'   130 / 191032.510.8 18.614.319.0
Track history (hours):
 
Tides and Currents Weather Stations Pressure Air Temp Water Temp Dewpoint Dewpoint Depression Visibility Wind Speed Wind Dir Waves Ship Positions

Thor Heyerdahl

Last reported at 2017-Mar-25 03:31 UTC. Time now 2017-Mar-25 03:46 UTC.
Position N 38°32' W 028°38'.

beam 6.5 m; draft 2.2 m.

Type: Sailing vessel. MMSI: 211232340.

Date/timePositionNaut miles runAvg speedWind from/ knotsBaromVisibWave heightAir tempDewpointWater temp
2017-Mar-25 03:31N 38°32' W 028°38'0 0.0
2017-Mar-25 02:32N 38°32' W 028°38'0 0.0
2017-Mar-25 01:32N 38°32' W 028°38'0 0.0
2017-Mar-25 00:32N 38°32' W 028°38'0 0.0
2017-Mar-24 23:32N 38°32' W 028°38'0 0.0
2017-Mar-24 22:32N 38°32' W 028°38'0 0.0
2017-Mar-24 21:32N 38°32' W 028°38'0 0.0
2017-Mar-24 20:32N 38°32' W 028°38'0 0.0
2017-Mar-24 19:32N 38°32' W 028°38'0 0.0
2017-Mar-24 18:32N 38°32' W 028°38'0 0.0
2017-Mar-24 17:31N 38°32' W 028°38'0 0.0
2017-Mar-24 16:32N 38°32' W 028°38'0 0.0
2017-Mar-24 15:32N 38°32' W 028°38'0 0.0
2017-Mar-24 14:32N 38°32' W 028°38'0 0.0
2017-Mar-24 13:29N 38°32' W 028°38'0 0.0
2017-Mar-24 12:32N 38°32' W 028°38'0 0.0
2017-Mar-24 11:29N 38°32' W 028°38'0 0.0
2017-Mar-24 10:32N 38°32' W 028°38'0 0.0
2017-Mar-24 09:32N 38°32' W 028°38'0 0.0
2017-Mar-24 08:32N 38°32' W 028°38'0 0.0
2017-Mar-24 07:28N 38°32' W 028°38'0 0.0
2017-Mar-24 06:29N 38°32' W 028°38'0 0.0
2017-Mar-24 05:32N 38°32' W 028°38'0 0.0
2017-Mar-24 04:29N 38°32' W 028°38'0 0.0
2017-Mar-24 03:32N 38°32' W 028°38'0 0.0
2017-Mar-24 02:32N 38°32' W 028°38'0 0.0
2017-Mar-24 01:32N 38°32' W 028°38'0 0.0
2017-Mar-24 00:32N 38°32' W 028°38'0 0.0
2017-Mar-23 23:32N 38°32' W 028°38'0 0.0
2017-Mar-23 22:32N 38°32' W 028°38'0 0.0
2017-Mar-23 21:32N 38°32' W 028°38'0 0.0
2017-Mar-23 18:29N 38°32' W 028°38'0 0.0
2017-Mar-23 17:32N 38°32' W 028°38'0 0.0
2017-Mar-23 16:31N 38°32' W 028°38'0 0.0
2017-Mar-23 15:32N 38°32' W 028°38'0 0.0
2017-Mar-23 14:32N 38°32' W 028°38'0 0.0
2017-Mar-23 13:32N 38°32' W 028°38'0 0.0
2017-Mar-23 12:32N 38°32' W 028°38'0 0.0
2017-Mar-23 11:29N 38°32' W 028°38'1 1.3
2017-Mar-23 10:33N 38°31' W 028°38'6 6.4
2017-Mar-23 09:33N 38°30' W 028°46'6 6.2
2017-Mar-23 08:33N 38°32' W 028°54'6 6.3
2017-Mar-23 07:34N 38°34' W 029°01'6 6.1
2017-Mar-23 06:33N 38°36' W 029°08'6 6.3
2017-Mar-23 05:33N 38°39' W 029°15'6 6.1
2017-Mar-23 04:34N 38°42' W 029°22'6 6.1
2017-Mar-23 03:33N 38°45' W 029°29'6 6.2
2017-Mar-23 02:33N 38°48' W 029°36'7 6.6
2017-Mar-23 01:33N 38°51' W 029°44'6 6.4
2017-Mar-23 00:33N 38°53' W 029°51'6 6.1
2017-Mar-22 23:33N 38°56' W 029°58'6 6.2
2017-Mar-22 22:34N 38°59' W 030°05'7 6.4
2017-Mar-22 21:29N 39°02' W 030°13'14 6.3
2017-Mar-22 19:15N 39°08' W 030°30'22 5.9
2017-Mar-22 15:27N 39°18' W 030°56'5 3.8
2017-Mar-22 14:04N 39°20' W 031°02'12 0.2
2017-Mar-20 14:10N 39°18' W 031°17'16 7.4
2017-Mar-20 12:00N 39°12' W 031°36'114 6.4 020 / 141030.010.8 16.3 8.815.5
2017-Mar-19 18:00N 38°48' W 034°00'29 4.8 320 / 41023.0 5.4 16.513.217.0
2017-Mar-19 12:00N 38°42' W 034°36'167 7.0 310 / 141023.9 2.2 15.515.517.0
2017-Mar-18 12:00N 37°54' W 038°00'120 6.6 240 / 191026.310.8 17.912.217.5
2017-Mar-17 18:00N 37°18' W 040°24'47 7.8 220 / 151029.810.8 18.812.518.5
2017-Mar-17 12:00N 37°00' W 041°18'134 7.5 200 / 211031.910.8 18.011.618.5
2017-Mar-16 18:00N 36°12' W 043°54'43 7.1 140 / 141032.010.8 18.015.619.0
2017-Mar-16 12:00N 35°54' W 044°42'145 6.1 160 / 121033.210.8 18.315.317.5
2017-Mar-15 12:00N 34°36' W 047°12'   130 / 191032.510.8 18.614.319.0

Dump ship's entire track history